sensor_id;sensor_type;location;lat;lon;timestamp;pressure;altitude;pressure_sealevel;temperature
71807;BMP280;59655;42.590;23.364;2023-07-08T00:01:54;91828.84;;;17.95
71807;BMP280;59655;42.590;23.364;2023-07-08T00:04:20;91862.72;;;18.01
71807;BMP280;59655;42.590;23.364;2023-07-08T00:06:46;91848.91;;;17.94
71807;BMP280;59655;42.590;23.364;2023-07-08T00:09:11;91835.91;;;17.79
71807;BMP280;59655;42.590;23.364;2023-07-08T00:11:37;91851.16;;;17.77
71807;BMP280;59655;42.590;23.364;2023-07-08T00:14:02;91844.81;;;17.72
71807;BMP280;59655;42.590;23.364;2023-07-08T00:16:28;91830.97;;;17.76
71807;BMP280;59655;42.590;23.364;2023-07-08T00:18:53;91824.84;;;17.75
71807;BMP280;59655;42.590;23.364;2023-07-08T00:21:19;91823.59;;;17.76
71807;BMP280;59655;42.590;23.364;2023-07-08T00:23:49;91822.38;;;17.67
71807;BMP280;59655;42.590;23.364;2023-07-08T00:26:21;91810.00;;;17.62
71807;BMP280;59655;42.590;23.364;2023-07-08T00:28:47;91814.13;;;17.75
71807;BMP280;59655;42.590;23.364;2023-07-08T00:31:13;91812.06;;;17.74
71807;BMP280;59655;42.590;23.364;2023-07-08T00:33:39;91809.13;;;17.69
71807;BMP280;59655;42.590;23.364;2023-07-08T00:36:10;91818.44;;;17.68
71807;BMP280;59655;42.590;23.364;2023-07-08T00:38:36;91835.25;;;17.69
71807;BMP280;59655;42.590;23.364;2023-07-08T00:44:11;91809.94;;;17.72
71807;BMP280;59655;42.590;23.364;2023-07-08T00:49:08;91810.25;;;17.66
71807;BMP280;59655;42.590;23.364;2023-07-08T00:51:39;91811.44;;;17.75
71807;BMP280;59655;42.590;23.364;2023-07-08T00:54:11;91810.25;;;17.66
71807;BMP280;59655;42.590;23.364;2023-07-08T00:59:38;91803.78;;;17.81
71807;BMP280;59655;42.590;23.364;2023-07-08T01:02:09;91806.81;;;17.54
71807;BMP280;59655;42.590;23.364;2023-07-08T01:05:01;91793.50;;;17.56
71807;BMP280;59655;42.590;23.364;2023-07-08T01:07:30;91791.72;;;17.49
71807;BMP280;59655;42.590;23.364;2023-07-08T01:10:02;91792.22;;;17.57
71807;BMP280;59655;42.590;23.364;2023-07-08T01:12:39;91780.34;;;17.60
71807;BMP280;59655;42.590;23.364;2023-07-08T01:15:06;91770.94;;;17.71
71807;BMP280;59655;42.590;23.364;2023-07-08T01:17:32;91775.59;;;17.70
71807;BMP280;59655;42.590;23.364;2023-07-08T01:19:59;91756.69;;;17.68
71807;BMP280;59655;42.590;23.364;2023-07-08T01:22:25;91762.94;;;17.83
71807;BMP280;59655;42.590;23.364;2023-07-08T01:24:50;91761.09;;;17.85
71807;BMP280;59655;42.590;23.364;2023-07-08T01:27:18;91752.69;;;17.79
71807;BMP280;59655;42.590;23.364;2023-07-08T01:29:45;91756.63;;;17.78
71807;BMP280;59655;42.590;23.364;2023-07-08T01:32:12;91763.66;;;17.62
71807;BMP280;59655;42.590;23.364;2023-07-08T01:34:44;91773.63;;;17.50
71807;BMP280;59655;42.590;23.364;2023-07-08T01:37:37;91789.16;;;17.30
71807;BMP280;59655;42.590;23.364;2023-07-08T01:42:50;91768.19;;;17.38
71807;BMP280;59655;42.590;23.364;2023-07-08T01:45:18;91766.78;;;17.37
71807;BMP280;59655;42.590;23.364;2023-07-08T01:47:48;91759.44;;;17.37
71807;BMP280;59655;42.590;23.364;2023-07-08T01:50:15;91770.31;;;17.39
71807;BMP280;59655;42.590;23.364;2023-07-08T01:52:41;91767.88;;;17.43
71807;BMP280;59655;42.590;23.364;2023-07-08T01:55:07;91769.72;;;17.41
71807;BMP280;59655;42.590;23.364;2023-07-08T01:57:32;91777.31;;;17.44
71807;BMP280;59655;42.590;23.364;2023-07-08T01:59:58;91767.81;;;17.53
71807;BMP280;59655;42.590;23.364;2023-07-08T02:02:24;91766.19;;;17.60
71807;BMP280;59655;42.590;23.364;2023-07-08T02:04:50;91753.25;;;17.56
71807;BMP280;59655;42.590;23.364;2023-07-08T02:07:15;91758.03;;;17.58
71807;BMP280;59655;42.590;23.364;2023-07-08T02:09:41;91772.34;;;17.72
71807;BMP280;59655;42.590;23.364;2023-07-08T02:12:06;91776.38;;;17.61
71807;BMP280;59655;42.590;23.364;2023-07-08T02:14:32;91764.81;;;17.59
71807;BMP280;59655;42.590;23.364;2023-07-08T02:16:57;91765.31;;;17.67
71807;BMP280;59655;42.590;23.364;2023-07-08T02:19:22;91765.69;;;17.73
71807;BMP280;59655;42.590;23.364;2023-07-08T02:21:48;91763.59;;;17.71
71807;BMP280;59655;42.590;23.364;2023-07-08T02:24:13;91773.59;;;17.71
71807;BMP280;59655;42.590;23.364;2023-07-08T02:26:41;91772.81;;;17.68
71807;BMP280;59655;42.590;23.364;2023-07-08T02:29:07;91774.41;;;17.62
71807;BMP280;59655;42.590;23.364;2023-07-08T02:31:32;91781.91;;;17.75
71807;BMP280;59655;42.590;23.364;2023-07-08T02:33:57;91775.66;;;17.61
71807;BMP280;59655;42.590;23.364;2023-07-08T02:36:23;91785.34;;;17.54
71807;BMP280;59655;42.590;23.364;2023-07-08T02:38:48;91797.13;;;17.39
71807;BMP280;59655;42.590;23.364;2023-07-08T02:41:14;91799.88;;;17.51
71807;BMP280;59655;42.590;23.364;2023-07-08T02:43:39;91811.19;;;17.50
71807;BMP280;59655;42.590;23.364;2023-07-08T02:46:05;91825.03;;;17.46
71807;BMP280;59655;42.590;23.364;2023-07-08T02:48:30;91806.56;;;17.40
71807;BMP280;59655;42.590;23.364;2023-07-08T02:51:00;91807.69;;;17.47
71807;BMP280;59655;42.590;23.364;2023-07-08T02:53:25;91821.28;;;17.39
71807;BMP280;59655;42.590;23.364;2023-07-08T02:55:53;91806.31;;;17.36
71807;BMP280;59655;42.590;23.364;2023-07-08T02:58:18;91816.56;;;17.50
71807;BMP280;59655;42.590;23.364;2023-07-08T03:00:44;91814.84;;;17.54
71807;BMP280;59655;42.590;23.364;2023-07-08T03:03:09;91812.75;;;17.53
71807;BMP280;59655;42.590;23.364;2023-07-08T03:05:34;91817.19;;;17.69
71807;BMP280;59655;42.590;23.364;2023-07-08T03:08:01;91822.53;;;17.69
71807;BMP280;59655;42.590;23.364;2023-07-08T03:10:26;91824.72;;;17.52
71807;BMP280;59655;42.590;23.364;2023-07-08T03:12:52;91813.34;;;17.41
71807;BMP280;59655;42.590;23.364;2023-07-08T03:15:17;91820.44;;;17.37
71807;BMP280;59655;42.590;23.364;2023-07-08T03:17:43;91809.75;;;17.27
71807;BMP280;59655;42.590;23.364;2023-07-08T03:20:10;91833.88;;;17.37
71807;BMP280;59655;42.590;23.364;2023-07-08T03:22:36;91820.34;;;17.25
71807;BMP280;59655;42.590;23.364;2023-07-08T03:25:01;91824.28;;;17.34
71807;BMP280;59655;42.590;23.364;2023-07-08T03:27:27;91818.59;;;17.39
71807;BMP280;59655;42.590;23.364;2023-07-08T03:29:52;91816.78;;;17.32
71807;BMP280;59655;42.590;23.364;2023-07-08T03:32:18;91815.66;;;17.35
71807;BMP280;59655;42.590;23.364;2023-07-08T03:34:43;91809.44;;;17.33
71807;BMP280;59655;42.590;23.364;2023-07-08T03:37:09;91821.00;;;17.35
71807;BMP280;59655;42.590;23.364;2023-07-08T03:39:35;91804.66;;;17.31
71807;BMP280;59655;42.590;23.364;2023-07-08T03:42:01;91806.00;;;17.42
71807;BMP280;59655;42.590;23.364;2023-07-08T03:44:26;91797.91;;;17.52
71807;BMP280;59655;42.590;23.364;2023-07-08T03:46:52;91796.13;;;17.35
71807;BMP280;59655;42.590;23.364;2023-07-08T03:49:19;91798.41;;;17.38
71807;BMP280;59655;42.590;23.364;2023-07-08T03:51:48;91786.97;;;17.38
71807;BMP280;59655;42.590;23.364;2023-07-08T03:54:14;91793.81;;;17.51
71807;BMP280;59655;42.590;23.364;2023-07-08T03:56:39;91807.81;;;17.49
71807;BMP280;59655;42.590;23.364;2023-07-08T03:59:05;91797.25;;;17.41
71807;BMP280;59655;42.590;23.364;2023-07-08T04:01:31;91789.47;;;17.45
71807;BMP280;59655;42.590;23.364;2023-07-08T04:03:58;91784.09;;;17.45
71807;BMP280;59655;42.590;23.364;2023-07-08T04:06:25;91790.22;;;17.58
71807;BMP280;59655;42.590;23.364;2023-07-08T04:08:51;91804.44;;;17.48
71807;BMP280;59655;42.590;23.364;2023-07-08T04:11:19;91804.03;;;17.42
71807;BMP280;59655;42.590;23.364;2023-07-08T04:13:45;91793.16;;;17.40
71807;BMP280;59655;42.590;23.364;2023-07-08T04:16:33;91802.63;;;17.41
71807;BMP280;59655;42.590;23.364;2023-07-08T04:19:01;91802.38;;;17.37
71807;BMP280;59655;42.590;23.364;2023-07-08T04:21:27;91799.53;;;17.35
71807;BMP280;59655;42.590;23.364;2023-07-08T04:23:52;91792.97;;;17.48
71807;BMP280;59655;42.590;23.364;2023-07-08T04:26:18;91799.56;;;17.57
71807;BMP280;59655;42.590;23.364;2023-07-08T04:28:44;91800.13;;;17.55
71807;BMP280;59655;42.590;23.364;2023-07-08T04:31:09;91798.03;;;17.54
71807;BMP280;59655;42.590;23.364;2023-07-08T04:33:35;91810.75;;;17.53
71807;BMP280;59655;42.590;23.364;2023-07-08T04:36:00;91824.63;;;17.50
71807;BMP280;59655;42.590;23.364;2023-07-08T04:38:26;91822.03;;;17.52
71807;BMP280;59655;42.590;23.364;2023-07-08T04:40:53;91810.69;;;17.63
71807;BMP280;59655;42.590;23.364;2023-07-08T04:43:19;91815.31;;;17.72
71807;BMP280;59655;42.590;23.364;2023-07-08T04:45:48;91816.44;;;17.69
71807;BMP280;59655;42.590;23.364;2023-07-08T04:48:16;91829.47;;;17.63
71807;BMP280;59655;42.590;23.364;2023-07-08T04:50:46;91803.69;;;17.79
71807;BMP280;59655;42.590;23.364;2023-07-08T04:53:12;91821.94;;;17.71
71807;BMP280;59655;42.590;23.364;2023-07-08T04:55:41;91822.19;;;17.54
71807;BMP280;59655;42.590;23.364;2023-07-08T04:58:07;91819.25;;;17.50
71807;BMP280;59655;42.590;23.364;2023-07-08T05:00:33;91833.16;;;17.58
71807;BMP280;59655;42.590;23.364;2023-07-08T05:02:59;91824.72;;;17.52
71807;BMP280;59655;42.590;23.364;2023-07-08T05:05:24;91828.31;;;17.44
71807;BMP280;59655;42.590;23.364;2023-07-08T05:07:49;91822.31;;;17.56
71807;BMP280;59655;42.590;23.364;2023-07-08T05:10:15;91828.47;;;17.68
71807;BMP280;59655;42.590;23.364;2023-07-08T05:12:42;91830.13;;;17.73
71807;BMP280;59655;42.590;23.364;2023-07-08T05:15:08;91832.75;;;17.83
71807;BMP280;59655;42.590;23.364;2023-07-08T05:17:33;91826.47;;;17.90
71807;BMP280;59655;42.590;23.364;2023-07-08T05:19:59;91832.94;;;17.97
71807;BMP280;59655;42.590;23.364;2023-07-08T05:22:26;91838.09;;;17.83
71807;BMP280;59655;42.590;23.364;2023-07-08T05:24:53;91837.66;;;17.86
71807;BMP280;59655;42.590;23.364;2023-07-08T05:27:21;91838.19;;;17.94
71807;BMP280;59655;42.590;23.364;2023-07-08T05:29:48;91829.78;;;18.00
71807;BMP280;59655;42.590;23.364;2023-07-08T05:32:13;91834.66;;;17.92
71807;BMP280;59655;42.590;23.364;2023-07-08T05:34:38;91825.72;;;17.99
71807;BMP280;59655;42.590;23.364;2023-07-08T05:37:04;91833.13;;;18.10
71807;BMP280;59655;42.590;23.364;2023-07-08T05:39:30;91831.25;;;18.13
71807;BMP280;59655;42.590;23.364;2023-07-08T05:41:56;91844.56;;;18.11
71807;BMP280;59655;42.590;23.364;2023-07-08T05:44:22;91836.75;;;18.15
71807;BMP280;59655;42.590;23.364;2023-07-08T05:46:48;91842.50;;;18.21
71807;BMP280;59655;42.590;23.364;2023-07-08T05:49:14;91834.84;;;18.27
71807;BMP280;59655;42.590;23.364;2023-07-08T05:51:40;91836.47;;;18.32
71807;BMP280;59655;42.590;23.364;2023-07-08T05:54:05;91841.69;;;18.18
71807;BMP280;59655;42.590;23.364;2023-07-08T05:56:30;91842.63;;;18.23
71807;BMP280;59655;42.590;23.364;2023-07-08T05:58:56;91851.91;;;18.32
71807;BMP280;59655;42.590;23.364;2023-07-08T06:01:21;91846.88;;;18.38
71807;BMP280;59655;42.590;23.364;2023-07-08T06:03:47;91844.00;;;18.46
71807;BMP280;59655;42.590;23.364;2023-07-08T06:06:13;91849.38;;;18.46
71807;BMP280;59655;42.590;23.364;2023-07-08T06:08:38;91845.97;;;18.45
71807;BMP280;59655;42.590;23.364;2023-07-08T06:11:04;91853.34;;;18.45
71807;BMP280;59655;42.590;23.364;2023-07-08T06:13:30;91870.31;;;18.47
71807;BMP280;59655;42.590;23.364;2023-07-08T06:15:56;91855.13;;;18.52
71807;BMP280;59655;42.590;23.364;2023-07-08T06:18:21;91860.59;;;18.54
71807;BMP280;59655;42.590;23.364;2023-07-08T06:20:57;91864.94;;;18.59
71807;BMP280;59655;42.590;23.364;2023-07-08T06:23:23;91871.34;;;18.54
71807;BMP280;59655;42.590;23.364;2023-07-08T06:25:50;91865.50;;;18.57
71807;BMP280;59655;42.590;23.364;2023-07-08T06:28:16;91863.59;;;18.70
71807;BMP280;59655;42.590;23.364;2023-07-08T06:30:42;91873.06;;;18.82
71807;BMP280;59655;42.590;23.364;2023-07-08T06:33:07;91865.56;;;18.81
71807;BMP280;59655;42.590;23.364;2023-07-08T06:35:33;91866.44;;;18.83
71807;BMP280;59655;42.590;23.364;2023-07-08T06:37:58;91861.63;;;18.82
71807;BMP280;59655;42.590;23.364;2023-07-08T06:40:24;91862.53;;;18.75
71807;BMP280;59655;42.590;23.364;2023-07-08T06:42:49;91850.72;;;18.68
71807;BMP280;59655;42.590;23.364;2023-07-08T06:45:15;91856.56;;;18.76
71807;BMP280;59655;42.590;23.364;2023-07-08T06:47:40;91852.63;;;18.77
71807;BMP280;59655;42.590;23.364;2023-07-08T06:50:06;91848.88;;;18.82
71807;BMP280;59655;42.590;23.364;2023-07-08T06:52:32;91855.88;;;18.76
71807;BMP280;59655;42.590;23.364;2023-07-08T06:55:00;91848.41;;;18.74
71807;BMP280;59655;42.590;23.364;2023-07-08T06:57:26;91850.63;;;18.78
71807;BMP280;59655;42.590;23.364;2023-07-08T06:59:52;91858.00;;;18.77
71807;BMP280;59655;42.590;23.364;2023-07-08T07:02:17;91854.81;;;18.81
71807;BMP280;59655;42.590;23.364;2023-07-08T07:04:43;91865.97;;;18.87
71807;BMP280;59655;42.590;23.364;2023-07-08T07:07:09;91857.91;;;18.87
71807;BMP280;59655;42.590;23.364;2023-07-08T07:09:34;91858.25;;;18.93
71807;BMP280;59655;42.590;23.364;2023-07-08T07:11:59;91868.97;;;18.81
71807;BMP280;59655;42.590;23.364;2023-07-08T07:14:25;91848.31;;;18.96
71807;BMP280;59655;42.590;23.364;2023-07-08T07:16:50;91882.22;;;19.01
71807;BMP280;59655;42.590;23.364;2023-07-08T07:19:15;91878.13;;;19.00
71807;BMP280;59655;42.590;23.364;2023-07-08T07:21:41;91866.09;;;19.01
71807;BMP280;59655;42.590;23.364;2023-07-08T07:24:06;91866.56;;;19.09
71807;BMP280;59655;42.590;23.364;2023-07-08T07:26:32;91875.22;;;19.19
71807;BMP280;59655;42.590;23.364;2023-07-08T07:28:58;91868.66;;;19.22
71807;BMP280;59655;42.590;23.364;2023-07-08T07:31:23;91870.22;;;19.25
71807;BMP280;59655;42.590;23.364;2023-07-08T07:33:49;91888.34;;;19.25
71807;BMP280;59655;42.590;23.364;2023-07-08T07:36:15;91876.66;;;19.20
71807;BMP280;59655;42.590;23.364;2023-07-08T07:38:40;91875.34;;;19.21
71807;BMP280;59655;42.590;23.364;2023-07-08T07:41:05;91892.09;;;19.20
71807;BMP280;59655;42.590;23.364;2023-07-08T07:43:33;91893.25;;;19.17
71807;BMP280;59655;42.590;23.364;2023-07-08T07:45:59;91889.75;;;19.26
71807;BMP280;59655;42.590;23.364;2023-07-08T07:48:24;91891.84;;;19.27
71807;BMP280;59655;42.590;23.364;2023-07-08T07:50:51;91898.03;;;19.18
71807;BMP280;59655;42.590;23.364;2023-07-08T07:53:17;91888.69;;;19.19
71807;BMP280;59655;42.590;23.364;2023-07-08T07:55:43;91908.69;;;19.28
71807;BMP280;59655;42.590;23.364;2023-07-08T07:58:08;91879.81;;;19.17
71807;BMP280;59655;42.590;23.364;2023-07-08T08:00:37;91891.75;;;19.25
71807;BMP280;59655;42.590;23.364;2023-07-08T08:03:02;91890.34;;;19.24
71807;BMP280;59655;42.590;23.364;2023-07-08T08:05:28;91905.31;;;19.27
71807;BMP280;59655;42.590;23.364;2023-07-08T08:07:53;91893.81;;;19.27
71807;BMP280;59655;42.590;23.364;2023-07-08T08:10:18;91893.47;;;19.32
71807;BMP280;59655;42.590;23.364;2023-07-08T08:12:44;91887.63;;;19.24
71807;BMP280;59655;42.590;23.364;2023-07-08T08:15:11;91898.53;;;19.26
71807;BMP280;59655;42.590;23.364;2023-07-08T08:17:36;91892.22;;;19.22
71807;BMP280;59655;42.590;23.364;2023-07-08T08:20:02;91891.75;;;19.25
71807;BMP280;59655;42.590;23.364;2023-07-08T08:22:27;91903.09;;;19.35
71807;BMP280;59655;42.590;23.364;2023-07-08T08:24:52;91897.03;;;19.35
71807;BMP280;59655;42.590;23.364;2023-07-08T08:27:18;91895.25;;;19.40
71807;BMP280;59655;42.590;23.364;2023-07-08T08:29:43;91904.13;;;19.42
71807;BMP280;59655;42.590;23.364;2023-07-08T08:32:09;91914.69;;;19.38
71807;BMP280;59655;42.590;23.364;2023-07-08T08:34:34;91914.44;;;19.46
71807;BMP280;59655;42.590;23.364;2023-07-08T08:36:59;91902.63;;;19.51
71807;BMP280;59655;42.590;23.364;2023-07-08T08:39:25;91913.41;;;19.51
71807;BMP280;59655;42.590;23.364;2023-07-08T08:41:54;91899.69;;;19.58
71807;BMP280;59655;42.590;23.364;2023-07-08T08:44:26;91895.69;;;19.59
71807;BMP280;59655;42.590;23.364;2023-07-08T08:49:34;91889.28;;;19.53
71807;BMP280;59655;42.590;23.364;2023-07-08T08:52:02;91900.28;;;19.57
71807;BMP280;59655;42.590;23.364;2023-07-08T08:54:29;91901.09;;;19.59
71807;BMP280;59655;42.590;23.364;2023-07-08T08:57:20;91891.16;;;19.62
71807;BMP280;59655;42.590;23.364;2023-07-08T08:59:55;91897.69;;;19.59
71807;BMP280;59655;42.590;23.364;2023-07-08T09:02:48;91889.84;;;19.63
71807;BMP280;59655;42.590;23.364;2023-07-08T09:05:17;91901.69;;;19.70
71807;BMP280;59655;42.590;23.364;2023-07-08T09:07:47;91897.09;;;19.72
71807;BMP280;59655;42.590;23.364;2023-07-08T09:10:31;91889.84;;;19.75
71807;BMP280;59655;42.590;23.364;2023-07-08T09:13:02;91904.13;;;19.77
71807;BMP280;59655;42.590;23.364;2023-07-08T09:15:28;91897.09;;;19.72
71807;BMP280;59655;42.590;23.364;2023-07-08T09:17:57;91903.53;;;19.79
71807;BMP280;59655;42.590;23.364;2023-07-08T09:20:26;91901.78;;;19.72
71807;BMP280;59655;42.590;23.364;2023-07-08T09:28:07;91884.31;;;19.85
71807;BMP280;59655;42.590;23.364;2023-07-08T09:30:33;91889.94;;;19.89
71807;BMP280;59655;42.590;23.364;2023-07-08T09:33:02;91892.88;;;19.93
71807;BMP280;59655;42.590;23.364;2023-07-08T09:35:37;91888.41;;;19.97
71807;BMP280;59655;42.590;23.364;2023-07-08T09:38:09;91891.69;;;19.96
71807;BMP280;59655;42.590;23.364;2023-07-08T09:40:35;91894.00;;;20.01
71807;BMP280;59655;42.590;23.364;2023-07-08T09:45:48;91895.75;;;20.09
71807;BMP280;59655;42.590;23.364;2023-07-08T09:48:23;91891.19;;;20.11
71807;BMP280;59655;42.590;23.364;2023-07-08T09:50:51;91896.78;;;20.15
71807;BMP280;59655;42.590;23.364;2023-07-08T09:53:17;91894.50;;;20.35
71807;BMP280;59655;42.590;23.364;2023-07-08T09:55:44;91895.47;;;20.28
71807;BMP280;59655;42.590;23.364;2023-07-08T09:58:15;91899.78;;;20.33
71807;BMP280;59655;42.590;23.364;2023-07-08T10:00:51;91898.16;;;20.28
71807;BMP280;59655;42.590;23.364;2023-07-08T10:03:22;91892.44;;;20.47
71807;BMP280;59655;42.590;23.364;2023-07-08T10:05:48;91887.47;;;20.30
71807;BMP280;59655;42.590;23.364;2023-07-08T10:08:18;91889.81;;;20.36
71807;BMP280;59655;42.590;23.364;2023-07-08T10:10:46;91894.28;;;20.31
71807;BMP280;59655;42.590;23.364;2023-07-08T10:13:34;91892.72;;;20.40
71807;BMP280;59655;42.590;23.364;2023-07-08T10:16:15;91901.72;;;20.44
71807;BMP280;59655;42.590;23.364;2023-07-08T10:18:41;91886.78;;;20.55
71807;BMP280;59655;42.590;23.364;2023-07-08T10:26:55;91880.94;;;20.72
71807;BMP280;59655;42.590;23.364;2023-07-08T10:37:31;91866.50;;;20.93
71807;BMP280;59655;42.590;23.364;2023-07-08T10:56:43;91850.53;;;21.11
71807;BMP280;59655;42.590;23.364;2023-07-08T10:59:47;91846.44;;;21.10
71807;BMP280;59655;42.590;23.364;2023-07-08T11:02:13;91853.13;;;21.09
71807;BMP280;59655;42.590;23.364;2023-07-08T11:07:49;91848.66;;;21.27
71807;BMP280;59655;42.590;23.364;2023-07-08T11:10:26;91846.16;;;21.18
71807;BMP280;59655;42.590;23.364;2023-07-08T11:13:07;91836.47;;;21.13
71807;BMP280;59655;42.590;23.364;2023-07-08T11:21:11;91841.06;;;21.38
71807;BMP280;59655;42.590;23.364;2023-07-08T11:28:37;91837.06;;;21.66
71807;BMP280;59655;42.590;23.364;2023-07-08T11:31:04;91833.63;;;21.52
71807;BMP280;59655;42.590;23.364;2023-07-08T11:33:30;91828.25;;;21.52
71807;BMP280;59655;42.590;23.364;2023-07-08T11:35:58;91821.81;;;21.59
71807;BMP280;59655;42.590;23.364;2023-07-08T11:38:26;91832.19;;;21.79
71807;BMP280;59655;42.590;23.364;2023-07-08T11:43:17;91833.91;;;21.86
71807;BMP280;59655;42.590;23.364;2023-07-08T11:45:43;91837.22;;;21.70
71807;BMP280;59655;42.590;23.364;2023-07-08T11:48:29;91831.97;;;21.88
71807;BMP280;59655;42.590;23.364;2023-07-08T11:50:55;91829.41;;;21.77
71807;BMP280;59655;42.590;23.364;2023-07-08T11:56:21;91833.97;;;21.88
71807;BMP280;59655;42.590;23.364;2023-07-08T12:03:50;91832.28;;;21.94
71807;BMP280;59655;42.590;23.364;2023-07-08T12:08:54;91849.38;;;21.99
71807;BMP280;59655;42.590;23.364;2023-07-08T12:11:31;91845.34;;;22.00
71807;BMP280;59655;42.590;23.364;2023-07-08T12:13:59;91831.25;;;22.02
71807;BMP280;59655;42.590;23.364;2023-07-08T12:16:26;91828.41;;;22.13
71807;BMP280;59655;42.590;23.364;2023-07-08T12:18:52;91826.22;;;22.10
71807;BMP280;59655;42.590;23.364;2023-07-08T12:21:18;91846.34;;;22.07
71807;BMP280;59655;42.590;23.364;2023-07-08T12:23:45;91826.53;;;22.32
71807;BMP280;59655;42.590;23.364;2023-07-08T12:26:11;91836.66;;;22.31
71807;BMP280;59655;42.590;23.364;2023-07-08T12:28:38;91829.59;;;22.40
71807;BMP280;59655;42.590;23.364;2023-07-08T12:31:18;91827.19;;;22.46
71807;BMP280;59655;42.590;23.364;2023-07-08T12:33:44;91825.44;;;22.53
71807;BMP280;59655;42.590;23.364;2023-07-08T12:36:15;91815.56;;;22.75
71807;BMP280;59655;42.590;23.364;2023-07-08T12:38:43;91839.59;;;22.83
71807;BMP280;59655;42.590;23.364;2023-07-08T12:41:15;91836.81;;;22.81
71807;BMP280;59655;42.590;23.364;2023-07-08T12:43:41;91843.78;;;23.02
71807;BMP280;59655;42.590;23.364;2023-07-08T12:46:09;91847.94;;;23.36
71807;BMP280;59655;42.590;23.364;2023-07-08T12:48:36;91821.84;;;24.14
71807;BMP280;59655;42.590;23.364;2023-07-08T12:51:03;91831.63;;;24.04
71807;BMP280;59655;42.590;23.364;2023-07-08T12:53:28;91831.97;;;23.60
71807;BMP280;59655;42.590;23.364;2023-07-08T12:55:56;91836.47;;;24.43
71807;BMP280;59655;42.590;23.364;2023-07-08T12:58:28;91846.06;;;25.24
71807;BMP280;59655;42.590;23.364;2023-07-08T13:00:55;91826.88;;;25.39
71807;BMP280;59655;42.590;23.364;2023-07-08T13:03:24;91834.44;;;25.85
71807;BMP280;59655;42.590;23.364;2023-07-08T13:05:51;91839.13;;;26.28
71807;BMP280;59655;42.590;23.364;2023-07-08T13:08:20;91842.06;;;26.84
71807;BMP280;59655;42.590;23.364;2023-07-08T13:10:48;91834.03;;;27.16
71807;BMP280;59655;42.590;23.364;2023-07-08T13:13:21;91833.16;;;27.64
71807;BMP280;59655;42.590;23.364;2023-07-08T13:15:47;91837.19;;;27.33
71807;BMP280;59655;42.590;23.364;2023-07-08T13:18:18;91848.31;;;27.15
71807;BMP280;59655;42.590;23.364;2023-07-08T13:20:51;91850.19;;;27.08
71807;BMP280;59655;42.590;23.364;2023-07-08T13:23:17;91861.38;;;27.46
71807;BMP280;59655;42.590;23.364;2023-07-08T13:25:43;91872.03;;;27.92
71807;BMP280;59655;42.590;23.364;2023-07-08T13:31:01;91849.22;;;27.80
71807;BMP280;59655;42.590;23.364;2023-07-08T13:33:32;91839.38;;;27.66
71807;BMP280;59655;42.590;23.364;2023-07-08T13:36:00;91837.78;;;27.87
71807;BMP280;59655;42.590;23.364;2023-07-08T13:38:32;91834.25;;;27.81
71807;BMP280;59655;42.590;23.364;2023-07-08T13:41:01;91843.94;;;28.18
71807;BMP280;59655;42.590;23.364;2023-07-08T13:43:33;91822.34;;;27.68
71807;BMP280;59655;42.590;23.364;2023-07-08T13:46:00;91837.69;;;26.73
71807;BMP280;59655;42.590;23.364;2023-07-08T13:48:42;91839.28;;;26.82
71807;BMP280;59655;42.590;23.364;2023-07-08T13:53:48;91859.06;;;27.09
71807;BMP280;59655;42.590;23.364;2023-07-08T13:56:32;91834.97;;;27.25
71807;BMP280;59655;42.590;23.364;2023-07-08T13:59:10;91834.28;;;26.98
71807;BMP280;59655;42.590;23.364;2023-07-08T14:01:42;91829.47;;;26.71
71807;BMP280;59655;42.590;23.364;2023-07-08T14:04:10;91839.63;;;26.70
71807;BMP280;59655;42.590;23.364;2023-07-08T14:06:39;91841.16;;;27.28
71807;BMP280;59655;42.590;23.364;2023-07-08T14:09:19;91838.91;;;27.48
71807;BMP280;59655;42.590;23.364;2023-07-08T14:11:46;91839.03;;;27.52
71807;BMP280;59655;42.590;23.364;2023-07-08T14:14:12;91833.34;;;27.72
71807;BMP280;59655;42.590;23.364;2023-07-08T14:16:40;91847.75;;;27.46
71807;BMP280;59655;42.590;23.364;2023-07-08T14:19:13;91832.03;;;27.17
71807;BMP280;59655;42.590;23.364;2023-07-08T14:21:39;91846.66;;;27.30
71807;BMP280;59655;42.590;23.364;2023-07-08T14:24:10;91852.69;;;27.54
71807;BMP280;59655;42.590;23.364;2023-07-08T14:26:35;91846.53;;;27.52
71807;BMP280;59655;42.590;23.364;2023-07-08T14:29:01;91837.00;;;27.83
71807;BMP280;59655;42.590;23.364;2023-07-08T14:31:26;91836.16;;;27.76
71807;BMP280;59655;42.590;23.364;2023-07-08T14:34:02;91841.19;;;27.58
71807;BMP280;59655;42.590;23.364;2023-07-08T14:36:28;91847.75;;;26.92
71807;BMP280;59655;42.590;23.364;2023-07-08T14:38:53;91846.13;;;26.83
71807;BMP280;59655;42.590;23.364;2023-07-08T14:41:20;91839.06;;;27.00
71807;BMP280;59655;42.590;23.364;2023-07-08T14:43:46;91843.00;;;27.47
71807;BMP280;59655;42.590;23.364;2023-07-08T14:46:11;91835.00;;;27.01
71807;BMP280;59655;42.590;23.364;2023-07-08T14:48:36;91830.28;;;27.30
71807;BMP280;59655;42.590;23.364;2023-07-08T14:51:02;91856.81;;;27.01
71807;BMP280;59655;42.590;23.364;2023-07-08T14:53:27;91844.31;;;26.92
71807;BMP280;59655;42.590;23.364;2023-07-08T14:55:54;91833.72;;;26.78
71807;BMP280;59655;42.590;23.364;2023-07-08T14:58:29;91831.31;;;26.40
71807;BMP280;59655;42.590;23.364;2023-07-08T15:00:57;91834.59;;;26.61
71807;BMP280;59655;42.590;23.364;2023-07-08T15:03:24;91835.59;;;26.97
71807;BMP280;59655;42.590;23.364;2023-07-08T15:05:49;91841.69;;;26.96
71807;BMP280;59655;42.590;23.364;2023-07-08T15:08:15;91831.84;;;26.35
71807;BMP280;59655;42.590;23.364;2023-07-08T15:10:45;91837.38;;;26.15
71807;BMP280;59655;42.590;23.364;2023-07-08T15:13:12;91827.41;;;26.00
71807;BMP280;59655;42.590;23.364;2023-07-08T15:15:38;91838.94;;;25.98
71807;BMP280;59655;42.590;23.364;2023-07-08T15:18:16;91842.63;;;25.43
71807;BMP280;59655;42.590;23.364;2023-07-08T15:20:41;91849.97;;;25.18
71807;BMP280;59655;42.590;23.364;2023-07-08T15:23:08;91844.94;;;25.73
71807;BMP280;59655;42.590;23.364;2023-07-08T15:25:34;91843.00;;;25.75